createdAt,value
2023-02-06T00:03:30.704Z,85.15
2023-02-06T00:08:35.442Z,85.05
2023-02-06T00:13:38.687Z,85.49
2023-02-06T00:18:41.484Z,85.97
2023-02-06T00:23:45.640Z,85.64
2023-02-06T00:28:48.725Z,85.83
2023-02-06T00:33:51.511Z,85.96
2023-02-06T00:38:56.334Z,85.83
2023-02-06T00:43:59.107Z,85.95
2023-02-06T00:49:02.204Z,85.94
2023-02-06T00:54:06.617Z,85.85
2023-02-06T00:59:09.972Z,85.74
2023-02-06T01:04:15.370Z,86.08
2023-02-06T01:09:19.585Z,85.44
2023-02-06T01:14:22.643Z,85.22
2023-02-06T01:19:25.553Z,85.02
2023-02-06T01:24:29.859Z,85.17
2023-02-06T01:29:32.720Z,85.00
2023-02-06T01:34:35.582Z,84.86
2023-02-06T01:39:39.738Z,85.05
2023-02-06T01:44:42.934Z,84.85
2023-02-06T01:49:50.121Z,84.88
2023-02-06T01:55:00.310Z,84.90
2023-02-06T02:00:08.244Z,84.84
2023-02-06T02:05:18.897Z,84.92
2023-02-06T02:10:23.258Z,85.01
2023-02-06T02:15:35.978Z,84.92
2023-02-06T02:21:05.036Z,84.90
2023-02-06T02:26:54.815Z,85.06
2023-02-06T02:32:21.867Z,84.88
2023-02-06T02:37:36.007Z,84.91
2023-02-06T02:42:48.016Z,84.71
2023-02-06T02:47:55.520Z,84.45
2023-02-06T02:53:02.067Z,84.79
2023-02-06T02:58:07.958Z,84.66
2023-02-06T03:03:14.305Z,85.12
2023-02-06T03:08:27.201Z,84.76
2023-02-06T03:13:35.760Z,85.06
2023-02-06T03:18:44.119Z,84.86
2023-02-06T03:23:51.242Z,84.82
2023-02-06T03:28:57.024Z,84.96
2023-02-06T03:34:07.004Z,84.58
2023-02-06T03:39:11.240Z,85.95
2023-02-06T03:44:20.825Z,86.00
2023-02-06T03:49:27.885Z,84.95
2023-02-06T03:54:33.530Z,84.97
2023-02-06T03:59:36.378Z,85.01
2023-02-06T04:04:42.035Z,85.39
2023-02-06T04:09:46.316Z,85.27
2023-02-06T04:14:49.164Z,84.93
2023-02-06T04:19:51.995Z,84.78
2023-02-06T04:24:56.174Z,85.25
2023-02-06T04:29:59.019Z,84.99
2023-02-06T04:35:01.890Z,85.58
2023-02-06T04:40:07.024Z,85.64
2023-02-06T04:45:10.741Z,85.92
2023-02-06T04:50:13.521Z,85.36
2023-02-06T04:55:17.676Z,85.06
2023-02-06T05:00:20.588Z,85.51
2023-02-06T05:05:23.482Z,85.35
2023-02-06T05:10:27.753Z,86.29
2023-02-06T05:15:30.516Z,86.59
2023-02-06T05:20:33.497Z,85.88
2023-02-06T05:25:39.484Z,86.34
2023-02-06T05:30:43.550Z,86.97
2023-02-06T05:35:46.371Z,89.23
2023-02-06T05:40:53.053Z,89.14
2023-02-06T05:45:56.018Z,87.98
2023-02-06T05:50:59.239Z,86.69
2023-02-06T05:56:03.369Z,86.30
2023-02-06T06:01:06.201Z,86.53
2023-02-06T06:06:09.534Z,86.09
2023-02-06T06:11:13.647Z,85.92
2023-02-06T06:16:16.483Z,86.88
2023-02-06T06:21:19.332Z,87.15
2023-02-06T06:26:23.445Z,86.03
2023-02-06T06:31:26.332Z,85.64
2023-02-06T06:36:29.338Z,86.25
2023-02-06T06:41:33.456Z,86.32
2023-02-06T06:46:36.248Z,87.35
2023-02-06T06:51:39.007Z,86.12
2023-02-06T06:56:43.153Z,86.47
2023-02-06T07:01:45.953Z,86.16
2023-02-06T07:06:48.884Z,85.96
2023-02-06T07:11:53.011Z,86.26
2023-02-06T07:16:56.240Z,86.49
2023-02-06T07:21:59.059Z,86.00
2023-02-06T07:27:03.189Z,85.67
2023-02-06T07:32:06.858Z,85.90
2023-02-06T07:37:09.669Z,86.22
2023-02-06T07:42:13.805Z,86.20
2023-02-06T07:47:28.438Z,86.10
2023-02-06T07:52:31.265Z,85.76
2023-02-06T07:57:35.408Z,85.85
2023-02-06T08:02:38.367Z,85.98
2023-02-06T08:07:41.203Z,86.31
2023-02-06T08:12:45.661Z,86.22
2023-02-06T08:17:48.449Z,86.40
2023-02-06T08:22:51.262Z,86.40
2023-02-06T08:27:56.640Z,85.71
2023-02-06T08:32:59.585Z,86.49
2023-02-06T08:38:02.371Z,86.03
2023-02-06T08:43:06.554Z,86.74
2023-02-06T08:48:09.304Z,85.12
2023-02-06T08:53:12.487Z,85.42
2023-02-06T08:58:16.711Z,85.36
2023-02-06T09:03:20.407Z,86.08
2023-02-06T09:08:23.303Z,86.16
2023-02-06T09:13:27.493Z,84.74
2023-02-06T09:18:30.354Z,85.01
2023-02-06T09:23:33.195Z,86.41
2023-02-06T09:28:37.414Z,84.56
2023-02-06T09:33:41.295Z,84.69
2023-02-06T09:38:45.952Z,85.23
2023-02-06T09:43:53.977Z,85.96
2023-02-06T09:48:58.983Z,83.76
2023-02-06T09:54:09.807Z,84.22
2023-02-06T09:59:18.975Z,83.56
2023-02-06T10:04:45.237Z,84.11
2023-02-06T10:09:53.358Z,84.69
2023-02-06T10:15:03.606Z,84.40
2023-02-06T10:20:14.310Z,84.81
2023-02-06T10:25:25.468Z,85.03
2023-02-06T10:30:40.820Z,85.03
2023-02-06T10:35:53.760Z,83.92
2023-02-06T10:41:05.475Z,83.66
2023-02-06T10:46:28.348Z,83.54
2023-02-06T10:51:33.676Z,83.82
2023-02-06T10:56:41.335Z,83.48
2023-02-06T11:01:47.613Z,83.48
2023-02-06T11:06:52.062Z,82.80
2023-02-06T11:11:57.591Z,84.15
2023-02-06T11:17:02.204Z,82.92
2023-02-06T11:22:13.444Z,82.67
2023-02-06T11:27:20.521Z,83.69
2023-02-06T11:32:35.939Z,82.83
2023-02-06T11:37:40.842Z,82.77
2023-02-06T11:42:44.236Z,82.31
2023-02-06T11:47:48.430Z,82.07
2023-02-06T11:52:55.944Z,81.88
2023-02-06T11:58:05.417Z,82.24
2023-02-06T12:03:28.471Z,81.80
2023-02-06T12:08:41.544Z,82.64
2023-02-06T12:13:49.736Z,82.01
2023-02-06T12:18:58.195Z,82.16
2023-02-06T12:24:03.533Z,82.61
2023-02-06T12:29:11.009Z,83.28
2023-02-06T12:34:19.737Z,82.90
2023-02-06T12:39:24.039Z,82.67
2023-02-06T12:44:34.193Z,82.79
2023-02-06T12:49:46.082Z,82.01
2023-02-06T12:54:53.759Z,83.19
2023-02-06T13:00:13.791Z,82.47
2023-02-06T13:05:23.380Z,81.91
2023-02-06T13:10:27.482Z,80.99
2023-02-06T13:15:36.154Z,81.13
2023-02-06T13:21:16.716Z,81.45
2023-02-06T13:26:19.832Z,82.07
2023-02-06T13:31:31.108Z,82.33
2023-02-06T13:36:51.319Z,83.68
2023-02-06T13:41:54.614Z,81.52
2023-02-06T13:47:23.380Z,81.51
2023-02-06T13:52:35.626Z,81.17
2023-02-06T13:58:08.306Z,79.52
2023-02-06T14:03:17.215Z,79.31
2023-02-06T14:08:27.941Z,79.95
2023-02-06T14:14:04.050Z,79.81
2023-02-06T14:19:18.363Z,80.00
2023-02-06T14:24:39.115Z,79.85
2023-02-06T14:29:50.286Z,80.27
2023-02-06T14:35:07.874Z,79.22
2023-02-06T14:40:20.615Z,76.96
2023-02-06T14:45:33.846Z,75.27
2023-02-06T14:50:42.134Z,75.30
2023-02-06T14:55:47.080Z,75.71
2023-02-06T15:00:49.936Z,76.57
2023-02-06T15:06:01.948Z,77.96
2023-02-06T15:11:15.940Z,79.14
2023-02-06T15:16:18.889Z,80.38
2023-02-06T15:21:22.143Z,79.77
2023-02-06T15:26:35.526Z,79.32
2023-02-06T15:31:38.624Z,79.38
2023-02-06T15:36:41.447Z,81.43
2023-02-06T15:41:53.041Z,80.77
2023-02-06T15:46:57.639Z,79.30
2023-02-06T15:52:01.908Z,80.01
2023-02-06T15:57:09.415Z,80.17
2023-02-06T16:02:22.608Z,79.95
2023-02-06T16:07:27.519Z,79.72
2023-02-06T16:12:34.824Z,80.14
2023-02-06T16:17:41.264Z,80.31
2023-02-06T16:22:45.184Z,80.01
2023-02-06T16:27:51.172Z,80.38
2023-02-06T16:32:55.436Z,81.04
2023-02-06T16:37:58.343Z,81.08
2023-02-06T16:43:02.593Z,81.50
2023-02-06T16:48:10.988Z,81.63
2023-02-06T16:53:20.060Z,81.72
2023-02-06T16:58:28.430Z,81.92
2023-02-06T17:03:32.530Z,82.25
2023-02-06T17:08:39.731Z,82.62
2023-02-06T17:13:44.042Z,82.87
2023-02-06T17:18:47.471Z,82.64
2023-02-06T17:23:51.748Z,82.34
2023-02-06T17:28:55.961Z,82.25
2023-02-06T17:33:59.277Z,82.31
2023-02-06T17:39:02.391Z,83.21
2023-02-06T17:44:06.776Z,82.53
2023-02-06T17:49:09.865Z,83.00
2023-02-06T17:54:13.682Z,82.96
2023-02-06T17:59:17.814Z,82.84
2023-02-06T18:04:21.343Z,82.75
2023-02-06T18:09:24.183Z,82.72
2023-02-06T18:14:28.360Z,82.71
2023-02-06T18:19:31.624Z,82.58
2023-02-06T18:24:34.501Z,82.61
2023-02-06T18:29:49.317Z,82.90
2023-02-06T18:34:53.102Z,82.86
2023-02-06T18:39:56.268Z,83.13
2023-02-06T18:45:02.125Z,83.27
2023-02-06T18:50:07.229Z,82.62
2023-02-06T18:55:10.312Z,82.59
2023-02-06T19:00:16.927Z,82.05
2023-02-06T19:05:20.682Z,81.98
2023-02-06T19:10:25.787Z,81.94
2023-02-06T19:15:34.151Z,81.38
2023-02-06T19:20:37.161Z,81.40
2023-02-06T19:25:41.801Z,81.05
2023-02-06T19:30:46.013Z,80.98
2023-02-06T19:35:48.866Z,80.92
2023-02-06T19:40:53.622Z,81.33
2023-02-06T19:45:57.849Z,81.32
2023-02-06T19:51:04.381Z,81.31
2023-02-06T19:56:08.129Z,81.74
2023-02-06T20:01:13.951Z,81.89
2023-02-06T20:06:17.326Z,82.05
2023-02-06T20:11:22.323Z,82.15
2023-02-06T20:16:29.058Z,82.31
2023-02-06T20:21:35.035Z,82.27
2023-02-06T20:26:39.968Z,82.00
2023-02-06T20:31:44.247Z,82.56
2023-02-06T20:36:47.620Z,81.48
2023-02-06T20:41:50.814Z,81.71
2023-02-06T20:46:55.053Z,82.17
2023-02-06T20:51:57.904Z,81.82
2023-02-06T20:57:01.183Z,82.08
2023-02-06T21:02:05.332Z,82.09
2023-02-06T21:07:08.266Z,82.17
2023-02-06T21:12:11.076Z,82.26
2023-02-06T21:17:15.210Z,82.43
2023-02-06T21:22:17.984Z,82.37
2023-02-06T21:27:20.762Z,82.08
2023-02-06T21:32:25.628Z,82.58
2023-02-06T21:37:28.620Z,81.95
2023-02-06T21:42:31.481Z,81.77
2023-02-06T21:47:36.880Z,81.58
2023-02-06T21:52:39.697Z,82.06
2023-02-06T21:57:42.460Z,81.87
2023-02-06T22:02:46.688Z,82.24
2023-02-06T22:07:49.513Z,82.38
2023-02-06T22:12:52.392Z,82.03
2023-02-06T22:17:56.572Z,81.98
2023-02-06T22:22:59.369Z,82.00
2023-02-06T22:28:02.308Z,81.63
2023-02-06T22:33:06.502Z,82.36
2023-02-06T22:43:40.604Z,82.17
2023-02-06T22:48:44.679Z,81.73
2023-02-06T22:53:47.423Z,82.40
2023-02-06T22:58:51.098Z,82.04
2023-02-06T23:03:57.519Z,82.56
2023-02-06T23:09:01.585Z,82.23
2023-02-06T23:14:05.932Z,82.14
2023-02-06T23:19:11.414Z,82.15
2023-02-06T23:24:14.776Z,82.03
2023-02-06T23:29:19.129Z,82.29
2023-02-06T23:34:24.469Z,81.63
2023-02-06T23:39:27.510Z,81.68
2023-02-06T23:44:30.253Z,81.94
2023-02-06T23:49:34.431Z,81.86
2023-02-06T23:54:37.247Z,81.25
2023-02-06T23:59:40.038Z,81.54
